Nearby METAR Reports

Actuele Vliegveldwaarnemingen NL (METAR).Zie KNMI uitleg METAR hier

EHAM - Amsterdam/Schiph, Netherlands
Distance from station: ONO 18km
Updated: 26/01/2020 16:55
Meestal bewolkt
Meestal bewolkt
 Wind van Z
Wind: Z 20 km/h
Temperatuur: 8°C
Wind Chill: 4°C
Dauwpunt: 6°C
Vochtigheid: 87%
Barometer: 1012 hPa
Clouds: Meestal bewolkt
Visibility: 10 km
Cloud details: Meestal bewolkt 518 m
2020/01/26 15:55 EHAM 261555Z 17011KT 9999 BKN017 08/06 Q1012 TEMPO BKN015
EHKD - DE KOOY/DE KOOY
Updated: 26/01/2020 16:55
Mist, Meestal bewolkt
Mist, Meestal bewolkt
 Wind van Z
Wind: Z 20 km/h
Temperatuur: 8°C
Wind Chill: 4°C
Dauwpunt: 6°C
Vochtigheid: 87%
Barometer: 1011 hPa
Overzicht: Mist
Clouds: Meestal bewolkt
Visibility: 9 km
Cloud details: Meestal bewolkt 427 m
Meestal bewolkt 671 m
Meestal bewolkt 823 m
2020/01/26 15:55 EHKD 261555Z AUTO 19011KT 9000 BR BKN014 BKN022 BKN027 08/06 Q1011 GRN 18011KT 7000 BKN018
 
EHLW - LEEUWARDEN/LEEUWARDEN
Updated: 26/01/2020 16:55
Meestal bewolkt
Meestal bewolkt
 Wind van Z
Wind: Z 15 km/h
Temperatuur: 6°C
Wind Chill: 3°C
Dauwpunt: 5°C
Vochtigheid: 93%
Barometer: 1011 hPa
Clouds: Meestal bewolkt
Cloud details: Meestal bewolkt 823 m
Meestal bewolkt 9144 m
2020/01/26 15:55 EHLW 261555Z AUTO 17008KT 130V190 //// // BKN027 BKN300 06/05 Q1011 RE//
EHVK - VOLKEL/VOLKEL
Updated: 26/01/2020 16:55
Helder
Helder
 Wind van Z
Wind: Z 11 km/h
Temperatuur: 9°C
Wind Chill: 7°C
Dauwpunt: 5°C
Vochtigheid: 76%
Barometer: 1013 hPa
Clouds: Helder
Visibility: 10 km
2020/01/26 15:55 EHVK 261555Z AUTO 18006KT 9999 NCD 09/05 Q1013 BLU
 
EHFS - VLISSINGEN
Updated: 26/01/2020 16:25
Meestal bewolkt
Meestal bewolkt
 Wind van ZW
Wind: ZW 28 km/h
Temperatuur: 8°C
Wind Chill: 4°C
Dauwpunt: 6°C
Vochtigheid: 87%
Barometer: 1012 hPa
Clouds: Meestal bewolkt
Visibility: 9 km
Cloud details: Gedeeltelijk bewolkt 335 m
Meestal bewolkt 427 m
2020/01/26 15:25 EHFS 261525Z AUTO 22015KT 9000 SCT011/// BKN014/// 08/06 Q1012
EHEH - EINDHOVEN/EINDHOVEN
Updated: 26/01/2020 16:55
Meestal bewolkt
Meestal bewolkt
 Wind van Z
Wind: Z 11 km/h
Temperatuur: 9°C
Wind Chill: 7°C
Dauwpunt: 5°C
Vochtigheid: 76%
Barometer: 1013 hPa
Clouds: Meestal bewolkt
Visibility: 10 km
Cloud details: Meestal bewolkt 7010 m
2020/01/26 15:55 EHEH 261555Z AUTO 18006KT 150V230 9999 BKN230 09/05 Q1013 BLU 20008KT CAVOK
 
EHGR - GILZE-RIJEN/GILZE-RIJEN
Updated: 26/01/2020 16:55
Helder
Helder
 Wind van Z
Wind: Z 11 km/h
Temperatuur: 8°C
Wind Chill: 6°C
Dauwpunt: 6°C
Vochtigheid: 87%
Barometer: 1012 hPa
Clouds: Helder
Visibility: 10 km
2020/01/26 15:55 EHGR 261555Z AUTO 19006KT 130V220 9999 NCD 08/06 Q1012 BLU
EHDL - ARNHEM/DEELEN
Updated: 26/01/2020 16:55
Zwaar bewolkt
Zwaar bewolkt
 Wind van ZZO
Wind: ZZO 11 km/h
Temperatuur: 8°C
Wind Chill: 6°C
Dauwpunt: 6°C
Vochtigheid: 87%
Barometer: 1013 hPa
Clouds: Zwaar bewolkt
Visibility: 10 km
Cloud details: Meestal bewolkt 671 m
Meestal bewolkt 884 m
Zwaar bewolkt 1128 m
2020/01/26 15:55 EHDL 261555Z AUTO 15006KT 110V200 9999 BKN022 BKN029 OVC037 08/06 Q1013 WHT
 
EHBK - MAASTRICHT/MAASTRICHT-AACHEN
Updated: 26/01/2020 16:55
Gedeeltelijk bewolkt
Gedeeltelijk bewolkt
 Wind van ZZW
Wind: ZZW 15 km/h
Temperatuur: 9°C
Wind Chill: 7°C
Dauwpunt: 5°C
Vochtigheid: 76%
Barometer: 1014 hPa
Clouds: Gedeeltelijk bewolkt
Visibility: 10 km
2020/01/26 15:55 EHBK 261555Z AUTO 20008KT 9999 NSC 09/05 Q1014 NOSIG